Scroll down
FLIGHT INFORMATION
Delta Air Lines

DAL3090

At Arrival Gate

KATL
 KSFO
DATE: 2020-06-27
GATE: A18
GATE DEPARTURE: 22:06
TAKEOFF: 22:21
DATE: 2020-06-28
GATE:  -
LANDING: 02:50
GATE ARRIVAL: 02:55
FLIGHT DATA
Crew: 
Speed: 
466 kts
Altitude: 
36,062 ft
Stage Length: 
1,854.5 nm
Block Time: 
4.7 hrs
Flight Time: 
4.5 hrs
Fuel Used: 
27,777 lb
Cleared Route: KATL SNUFY BDODD CUTTN HANKO GAD MEM TUL END KD45S ILC KITTN KATTS INYOE KSFO
TRACK DATA
50,000 ft 1,000 kts
AIRCRAFT INFO AND CUMULATIVE STATS
Aircraft Type: 
B739ERBW
Registration: 
SELCAL: 
BJGM
MSN/LN: 
31931 / 4883
Operator: 
Total Flights: 
1
Total Block Time: 
4.7 hrs
Total Flight Time: 
4.5 hrs
Total Fuel Used: 
27,777 lb
DATALINK LOG | Newest first | Current as of: 2022-10-05 22:38:41
LABEL SEQUENCE CONTENT Dn/Up
QD055802:55 8.3▼ Dn
QC005402:50▼ Dn
2U3533KSFO 280256Z 29014KT 10SM FEW006 FEW025 BKN180 15/11 A2981 RMK AO2 SLP093 T01500106 58002 $▲ Up
2S3532KSFO▼ Dn
QB252222:21▼ Dn
QA100822:06 36.1▼ Dn
A30412CLEARED TO KSFO VIA CUTTN2 HANKO GAD MEM TUL END KD45S ILC KITTN Q164 KATTS INYOE DYAMD5. SQUAWK .▲ Up
2U0410KATL 272252Z 29004KT 10SM FEW030 SCT060 SCT150 BKN180 BKN250 23/19 A3007 RMK AO2 RAE2158 SLP173 P0000 T02280194▲ Up
2U0409KSFO 272256Z 32017KT 10SM FEW005 FEW180 19/12 A2982 RMK AO2 SLP099 T01940122 $▲ Up
2S0409KATL KSFO▼ Dn
Q00301[LINK ACK]▲ Up
Q00301[LINK TEST]▼ Dn


AIRCRAFT HISTORY
FLIGHT DATE FLIGHT NO. ORIGIN DESTINATION CLEARED ROUTE BLOCK TIME FLIGHT TIME FUEL USED PILOT
2020-06-27DAL3090KATL KSFO KATL SNUFY BDODD CUTTN HANKO GAD MEM TUL END KD45S ILC KITTN KATTS INYOE KSFO4.7 hrs4.5 hrs27,777 lbMichael Roth